createdAt,value
2018-02-24T00:00:41.636Z,0
2018-02-24T00:01:41.642Z,0
2018-02-24T00:02:41.378Z,0
2018-02-24T00:03:41.380Z,0
2018-02-24T00:04:41.956Z,0
2018-02-24T00:05:41.740Z,0
2018-02-24T00:06:41.687Z,0
2018-02-24T00:07:41.974Z,0
2018-02-24T00:08:41.699Z,0
2018-02-24T00:09:41.988Z,0
2018-02-24T00:10:42.071Z,0
2018-02-24T00:11:42.009Z,0
2018-02-24T00:12:41.745Z,0
2018-02-24T00:13:41.739Z,0
2018-02-24T00:14:42.363Z,0
2018-02-24T00:15:41.808Z,0
2018-02-24T00:16:42.058Z,0
2018-02-24T00:17:41.501Z,0
2018-02-24T00:18:41.777Z,0
2018-02-24T00:19:42.077Z,0
2018-02-24T00:20:41.881Z,0
2018-02-24T00:21:41.528Z,0
2018-02-24T00:22:41.534Z,0
2018-02-24T00:23:41.827Z,0
2018-02-24T00:24:41.833Z,0
2018-02-24T00:25:41.858Z,0
2018-02-24T00:26:42.127Z,0
2018-02-24T00:27:41.857Z,0
2018-02-24T00:28:42.153Z,0
2018-02-24T00:29:41.586Z,0
2018-02-24T00:30:41.598Z,0
2018-02-24T00:31:42.185Z,0
2018-02-24T00:32:41.918Z,0
2018-02-24T00:33:41.339Z,0
2018-02-24T00:34:41.912Z,0
2018-02-24T00:35:42.303Z,0
2018-02-24T00:36:41.929Z,0
2018-02-24T00:37:42.225Z,0
2018-02-24T00:38:42.235Z,0
2018-02-24T00:39:41.959Z,0
2018-02-24T00:40:41.682Z,0
2018-02-24T00:41:41.976Z,0
2018-02-24T00:42:41.986Z,0
2018-02-24T00:43:41.984Z,0
2018-02-24T00:44:41.713Z,0
2018-02-24T00:45:42.293Z,0
2018-02-24T00:46:42.016Z,0
2018-02-24T00:47:42.025Z,0
2018-02-24T00:48:42.034Z,0
2018-02-24T00:49:42.037Z,0
2018-02-24T00:50:41.532Z,0
2018-02-24T00:51:42.055Z,0
2018-02-24T00:52:42.071Z,0
2018-02-24T00:53:42.353Z,0
2018-02-24T00:54:42.079Z,0
2018-02-24T00:55:42.364Z,0
2018-02-24T00:56:42.093Z,0
2018-02-24T00:57:42.100Z,0
2018-02-24T00:58:42.159Z,0
2018-02-24T00:59:42.121Z,0
2018-02-24T01:00:41.854Z,0
2018-02-24T01:01:42.138Z,0
2018-02-24T01:02:42.140Z,0
2018-02-24T01:03:42.439Z,0
2018-02-24T01:04:42.439Z,0
2018-02-24T01:05:42.248Z,0
2018-02-24T01:06:42.454Z,0
2018-02-24T01:07:42.179Z,0
2018-02-24T01:08:41.907Z,0
2018-02-24T01:09:42.200Z,0
2018-02-24T01:10:42.537Z,0
2018-02-24T01:11:42.506Z,0
2018-02-24T01:12:42.509Z,0
2018-02-24T01:13:42.231Z,0
2018-02-24T01:14:41.959Z,0
2018-02-24T01:15:41.965Z,0
2018-02-24T01:16:42.257Z,0
2018-02-24T01:17:41.978Z,0
2018-02-24T01:18:41.995Z,0
2018-02-24T01:19:42.002Z,0
2018-02-24T01:20:42.294Z,0
2018-02-24T01:21:42.022Z,0
2018-02-24T01:22:42.312Z,0
2018-02-24T01:23:42.032Z,0
2018-02-24T01:24:42.036Z,0
2018-02-24T01:25:42.330Z,0
2018-02-24T01:26:42.628Z,0
2018-02-24T01:27:42.057Z,0
2018-02-24T01:28:42.636Z,0
2018-02-24T01:29:42.369Z,0
2018-02-24T01:30:42.088Z,0
2018-02-24T01:31:42.377Z,0
2018-02-24T01:32:42.106Z,0
2018-02-24T01:33:42.392Z,0
2018-02-24T01:34:42.411Z,0
2018-02-24T01:35:42.463Z,0
2018-02-24T01:36:42.145Z,0
2018-02-24T01:37:42.427Z,0
2018-02-24T01:38:42.438Z,0
2018-02-24T01:39:42.723Z,0
2018-02-24T01:40:42.445Z,0
2018-02-24T01:41:42.459Z,0
2018-02-24T01:42:42.466Z,0
2018-02-24T01:43:42.195Z,0
2018-02-24T01:44:41.917Z,0
2018-02-24T01:45:42.490Z,0
2018-02-24T01:46:42.499Z,0
2018-02-24T01:47:42.503Z,0
2018-02-24T01:48:41.953Z,0
2018-02-24T01:49:42.248Z,0
2018-02-24T01:50:42.584Z,0
2018-02-24T01:51:42.538Z,0
2018-02-24T01:52:42.542Z,0
2018-02-24T01:53:42.554Z,0
2018-02-24T01:54:42.854Z,0
2018-02-24T01:55:42.628Z,0
2018-02-24T01:56:42.581Z,0
2018-02-24T01:57:42.879Z,0
2018-02-24T01:58:42.592Z,0
2018-02-24T01:59:42.605Z,0
2018-02-24T02:00:42.615Z,0
2018-02-24T02:01:42.618Z,0
2018-02-24T02:02:42.623Z,0
2018-02-24T02:03:42.917Z,0
2018-02-24T02:04:42.367Z,0
2018-02-24T02:05:42.656Z,0
2018-02-24T02:06:42.663Z,0
2018-02-24T02:07:42.674Z,0
2018-02-24T02:08:42.675Z,0
2018-02-24T02:09:42.686Z,0
2018-02-24T02:10:42.976Z,0
2018-02-24T02:11:42.696Z,0
2018-02-24T02:12:42.428Z,0
2018-02-24T02:13:42.428Z,0
2018-02-24T02:14:42.436Z,0
2018-02-24T02:15:42.725Z,0
2018-02-24T02:16:43.025Z,0
2018-02-24T02:17:42.760Z,0
2018-02-24T02:18:42.750Z,0
2018-02-24T02:19:43.046Z,0
2018-02-24T02:20:42.765Z,0
2018-02-24T02:21:42.775Z,0
2018-02-24T02:22:42.794Z,0
2018-02-24T02:23:42.516Z,0
2018-02-24T02:24:42.803Z,0
2018-02-24T02:25:43.146Z,0
2018-02-24T02:26:43.100Z,0
2018-02-24T02:27:42.824Z,0
2018-02-24T02:28:42.834Z,0
2018-02-24T02:29:42.559Z,0
2018-02-24T02:30:42.869Z,0
2018-02-24T02:31:43.146Z,0
2018-02-24T02:32:43.158Z,0
2018-02-24T02:33:43.161Z,0
2018-02-24T02:34:43.157Z,0
2018-02-24T02:35:42.377Z,0
2018-02-24T02:36:42.615Z,0
2018-02-24T02:37:42.904Z,0
2018-02-24T02:38:43.202Z,0
2018-02-24T02:39:42.930Z,0
2018-02-24T02:40:42.984Z,0
2018-02-24T02:41:43.222Z,0
2018-02-24T02:42:42.661Z,0
2018-02-24T02:43:43.249Z,0
2018-02-24T02:44:43.251Z,0
2018-02-24T02:45:43.028Z,0
2018-02-24T02:46:42.694Z,0
2018-02-24T02:47:42.707Z,0
2018-02-24T02:48:43.286Z,0
2018-02-24T02:49:42.997Z,0
2018-02-24T02:50:43.288Z,0
2018-02-24T02:51:43.311Z,0
2018-02-24T02:52:42.473Z,0
2018-02-24T02:53:43.044Z,0
2018-02-24T02:54:43.057Z,0
2018-02-24T02:55:42.769Z,0
2018-02-24T02:56:42.492Z,0
2018-02-24T02:57:42.782Z,0
2018-02-24T02:58:43.367Z,0
2018-02-24T02:59:43.082Z,0
2018-02-24T03:00:43.087Z,0
2018-02-24T03:01:43.097Z,0
2018-02-24T03:02:43.104Z,0
2018-02-24T03:03:42.901Z,0
2018-02-24T03:04:43.422Z,0
2018-02-24T03:05:43.127Z,0
2018-02-24T03:06:43.143Z,0
2018-02-24T03:07:43.155Z,0
2018-02-24T03:08:42.863Z,0
2018-02-24T03:09:43.164Z,0
2018-02-24T03:10:43.448Z,0
2018-02-24T03:11:42.899Z,0
2018-02-24T03:12:43.185Z,0
2018-02-24T03:13:42.908Z,0
2018-02-24T03:14:42.630Z,0
2018-02-24T03:15:43.489Z,0
2018-02-24T03:16:43.494Z,0
2018-02-24T03:17:43.222Z,0
2018-02-24T03:18:43.509Z,0
2018-02-24T03:19:42.676Z,0
2018-02-24T03:20:43.528Z,0
2018-02-24T03:21:43.255Z,0
2018-02-24T03:22:43.263Z,0
2018-02-24T03:23:43.259Z,0
2018-02-24T03:24:43.557Z,0
2018-02-24T03:25:42.996Z,0
2018-02-24T03:26:43.567Z,0
2018-02-24T03:27:43.013Z,0
2018-02-24T03:28:43.586Z,0
2018-02-24T03:29:43.305Z,0
2018-02-24T03:30:42.756Z,0
2018-02-24T03:31:43.673Z,0
2018-02-24T03:32:43.052Z,0
2018-02-24T03:33:43.633Z,0
2018-02-24T03:34:43.086Z,0
2018-02-24T03:35:43.641Z,0
2018-02-24T03:36:43.134Z,0
2018-02-24T03:37:43.090Z,0
2018-02-24T03:38:43.107Z,0
2018-02-24T03:39:43.387Z,0
2018-02-24T03:40:43.682Z,0
2018-02-24T03:41:43.133Z,0
2018-02-24T03:42:43.413Z,0
2018-02-24T03:43:43.140Z,0
2018-02-24T03:44:43.438Z,0
2018-02-24T03:45:43.437Z,0
2018-02-24T03:46:43.444Z,0
2018-02-24T03:47:43.169Z,0
2018-02-24T03:48:43.748Z,0
2018-02-24T03:49:43.476Z,0
2018-02-24T03:50:43.196Z,0
2018-02-24T03:51:43.481Z,0
2018-02-24T03:52:43.208Z,0
2018-02-24T03:53:43.778Z,0
2018-02-24T03:54:43.788Z,0
2018-02-24T03:55:43.518Z,0
2018-02-24T03:56:43.523Z,0
2018-02-24T03:57:43.248Z,0
2018-02-24T03:58:43.823Z,0
2018-02-24T03:59:43.268Z,0
2018-02-24T04:00:43.843Z,0
2018-02-24T04:01:43.597Z,0
2018-02-24T04:02:43.284Z,0
2018-02-24T04:03:43.584Z,0
2018-02-24T04:04:43.576Z,0
2018-02-24T04:05:43.314Z,0
2018-02-24T04:06:43.892Z,0
2018-02-24T04:07:43.895Z,0
2018-02-24T04:08:43.340Z,0
2018-02-24T04:09:43.900Z,0
2018-02-24T04:10:43.345Z,0
2018-02-24T04:11:43.698Z,0
2018-02-24T04:12:43.648Z,0
2018-02-24T04:13:43.655Z,0
2018-02-24T04:14:43.945Z,0
2018-02-24T04:15:43.683Z,0
2018-02-24T04:16:43.679Z,0
2018-02-24T04:17:43.687Z,0
2018-02-24T04:18:43.695Z,0
2018-02-24T04:19:43.986Z,0
2018-02-24T04:20:43.997Z,0
2018-02-24T04:21:44.057Z,0
2018-02-24T04:22:43.439Z,0
2018-02-24T04:23:43.444Z,0
2018-02-24T04:24:44.017Z,0
2018-02-24T04:25:43.754Z,0
2018-02-24T04:26:43.750Z,0
2018-02-24T04:27:43.763Z,0
2018-02-24T04:28:43.485Z,0
2018-02-24T04:29:43.769Z,0
2018-02-24T04:30:44.070Z,0
2018-02-24T04:31:43.791Z,0
2018-02-24T04:32:43.801Z,0
2018-02-24T04:33:43.808Z,0
2018-02-24T04:34:43.812Z,0
2018-02-24T04:35:43.824Z,0
2018-02-24T04:36:44.222Z,0
2018-02-24T04:37:43.559Z,0
2018-02-24T04:38:43.558Z,0
2018-02-24T04:39:44.145Z,0
2018-02-24T04:40:44.150Z,0
2018-02-24T04:41:43.581Z,0
2018-02-24T04:42:43.886Z,0
2018-02-24T04:43:43.880Z,0
2018-02-24T04:44:43.608Z,0
2018-02-24T04:45:43.943Z,0
2018-02-24T04:46:43.337Z,0
2018-02-24T04:47:43.631Z,0
2018-02-24T04:48:43.920Z,0
2018-02-24T04:49:43.660Z,0
2018-02-24T04:50:43.936Z,0
2018-02-24T04:51:43.941Z,0
2018-02-24T04:52:43.684Z,0
2018-02-24T04:53:44.243Z,0
2018-02-24T04:54:43.690Z,0
2018-02-24T04:55:43.972Z,0
2018-02-24T04:56:43.976Z,0
2018-02-24T04:57:43.989Z,0
2018-02-24T04:58:43.715Z,0
2018-02-24T04:59:43.721Z,0
2018-02-24T05:00:44.294Z,0
2018-02-24T05:01:44.023Z,0
2018-02-24T05:02:44.308Z,0
2018-02-24T05:03:43.752Z,0
2018-02-24T05:04:43.772Z,0
2018-02-24T05:05:44.356Z,0
2018-02-24T05:06:43.780Z,0
2018-02-24T05:07:43.785Z,0
2018-02-24T05:08:43.796Z,0
2018-02-24T05:09:43.799Z,0
2018-02-24T05:10:44.098Z,0
2018-02-24T05:11:44.100Z,0
2018-02-24T05:12:43.827Z,0
2018-02-24T05:13:44.390Z,0
2018-02-24T05:14:44.124Z,0
2018-02-24T05:15:43.848Z,0
2018-02-24T05:16:44.135Z,0
2018-02-24T05:17:44.475Z,0
2018-02-24T05:18:44.150Z,0
2018-02-24T05:19:43.873Z,0
2018-02-24T05:20:44.160Z,0
2018-02-24T05:21:44.465Z,0
2018-02-24T05:22:44.187Z,0
2018-02-24T05:23:44.183Z,0
2018-02-24T05:24:44.479Z,0
2018-02-24T05:25:44.215Z,0
2018-02-24T05:26:44.212Z,0
2018-02-24T05:27:44.550Z,0
2018-02-24T05:28:44.226Z,0
2018-02-24T05:29:44.512Z,0
2018-02-24T05:30:44.534Z,0
2018-02-24T05:31:44.625Z,0
2018-02-24T05:32:44.536Z,0
2018-02-24T05:33:44.274Z,0
2018-02-24T05:34:44.561Z,0
2018-02-24T05:35:44.563Z,0
2018-02-24T05:36:44.288Z,0
2018-02-24T05:37:44.291Z,0
2018-02-24T05:38:44.592Z,0
2018-02-24T05:39:44.327Z,0
2018-02-24T05:40:44.318Z,0
2018-02-24T05:41:44.038Z,0
2018-02-24T05:42:44.384Z,0
2018-02-24T05:43:44.340Z,0
2018-02-24T05:44:44.071Z,0
2018-02-24T05:45:44.072Z,0
2018-02-24T05:46:44.080Z,4
2018-02-24T05:47:44.423Z,4
2018-02-24T05:48:44.682Z,0
2018-02-24T05:49:44.385Z,4
2018-02-24T05:50:44.390Z,4
2018-02-24T05:51:44.405Z,0
2018-02-24T05:52:44.407Z,4
2018-02-24T05:53:44.151Z,4
2018-02-24T05:54:44.423Z,4
2018-02-24T05:55:44.433Z,8
2018-02-24T05:56:44.444Z,4
2018-02-24T05:57:44.800Z,8
2018-02-24T05:58:44.454Z,8
2018-02-24T05:59:44.458Z,12
2018-02-24T06:00:44.466Z,12
2018-02-24T06:01:44.475Z,12
2018-02-24T06:02:44.761Z,12
2018-02-24T06:03:44.212Z,20
2018-02-24T06:04:44.508Z,20
2018-02-24T06:05:44.223Z,20
2018-02-24T06:06:44.518Z,24
2018-02-24T06:07:44.584Z,24
2018-02-24T06:08:44.527Z,32
2018-02-24T06:09:44.535Z,32
2018-02-24T06:10:44.825Z,36
2018-02-24T06:11:44.824Z,40
2018-02-24T06:12:44.276Z,40
2018-02-24T06:13:44.566Z,44
2018-02-24T06:14:44.855Z,44
2018-02-24T06:15:44.585Z,48
2018-02-24T06:16:44.308Z,52
2018-02-24T06:17:44.930Z,56
2018-02-24T06:18:44.886Z,60
2018-02-24T06:19:44.221Z,64
2018-02-24T06:20:44.897Z,68
2018-02-24T06:21:44.910Z,72
2018-02-24T06:22:44.646Z,72
2018-02-24T06:23:44.930Z,80
2018-02-24T06:24:44.938Z,84
2018-02-24T06:25:44.935Z,84
2018-02-24T06:26:44.949Z,88
2018-02-24T06:27:44.105Z,92
2018-02-24T06:28:44.686Z,92
2018-02-24T06:29:44.686Z,96
2018-02-24T06:30:44.704Z,100
2018-02-24T06:31:44.698Z,108
2018-02-24T06:32:44.429Z,108
2018-02-24T06:33:44.716Z,112
2018-02-24T06:34:44.723Z,116
2018-02-24T06:35:44.447Z,116
2018-02-24T06:36:44.746Z,120
2018-02-24T06:37:45.024Z,124
2018-02-24T06:38:45.046Z,132
2018-02-24T06:39:44.758Z,136
2018-02-24T06:40:44.785Z,148
2018-02-24T06:41:44.780Z,192
2018-02-24T06:42:44.847Z,192
2018-02-24T06:43:44.816Z,196
2018-02-24T06:44:44.255Z,192
2018-02-24T06:45:44.811Z,184
2018-02-24T06:46:45.137Z,188
2018-02-24T06:47:44.547Z,196
2018-02-24T06:48:44.894Z,212
2018-02-24T06:49:44.565Z,220
2018-02-24T06:50:44.849Z,240
2018-02-24T06:51:44.888Z,236
2018-02-24T06:52:44.577Z,256
2018-02-24T06:53:44.869Z,244
2018-02-24T06:54:45.292Z,248
2018-02-24T06:55:44.607Z,260
2018-02-24T06:56:44.893Z,264
2018-02-24T06:57:44.661Z,248
2018-02-24T06:58:44.904Z,280
2018-02-24T06:59:44.916Z,268
2018-02-24T07:00:44.979Z,248
2018-02-24T07:01:44.931Z,288
2018-02-24T07:02:45.281Z,276
2018-02-24T07:03:44.959Z,272
2018-02-24T07:04:45.236Z,276
2018-02-24T07:05:44.691Z,300
2018-02-24T07:06:45.260Z,300
2018-02-24T07:07:45.289Z,292
2018-02-24T07:08:44.990Z,308
2018-02-24T07:09:44.991Z,300
2018-02-24T07:10:44.772Z,328
2018-02-24T07:11:45.282Z,304
2018-02-24T07:12:44.749Z,328
2018-02-24T07:13:45.018Z,300
2018-02-24T07:14:45.035Z,280
2018-02-24T07:15:45.323Z,304
2018-02-24T07:16:45.091Z,296
2018-02-24T07:17:45.060Z,312
2018-02-24T07:18:45.336Z,284
2018-02-24T07:19:45.070Z,308
2018-02-24T07:20:45.079Z,304
2018-02-24T07:21:45.366Z,316
2018-02-24T07:22:45.085Z,308
2018-02-24T07:23:45.093Z,376
2018-02-24T07:24:44.821Z,384
2018-02-24T07:25:44.830Z,388
2018-02-24T07:26:45.131Z,396
2018-02-24T07:27:45.155Z,396
2018-02-24T07:28:45.144Z,428
2018-02-24T07:29:45.148Z,460
2018-02-24T07:30:45.155Z,420
2018-02-24T07:31:45.177Z,392
2018-02-24T07:32:45.175Z,400
2018-02-24T07:33:44.896Z,392
2018-02-24T07:34:45.563Z,388
2018-02-24T07:35:44.904Z,412
2018-02-24T07:36:44.914Z,396
2018-02-24T07:37:44.921Z,396
2018-02-24T07:38:45.490Z,444
2018-02-24T07:39:45.515Z,488
2018-02-24T07:40:45.229Z,484
2018-02-24T07:41:45.521Z,508
2018-02-24T07:42:44.964Z,484
2018-02-24T07:43:45.540Z,452
2018-02-24T07:44:44.696Z,456
2018-02-24T07:45:44.980Z,528
2018-02-24T07:46:45.279Z,552
2018-02-24T07:47:45.101Z,564
2018-02-24T07:48:45.292Z,524
2018-02-24T07:49:45.040Z,556
2018-02-24T07:50:45.307Z,588
2018-02-24T07:51:45.611Z,632
2018-02-24T07:52:45.690Z,636
2018-02-24T07:53:45.328Z,600
2018-02-24T07:54:45.070Z,684
2018-02-24T07:55:45.658Z,564
2018-02-24T07:56:45.358Z,568
2018-02-24T07:57:45.655Z,600
2018-02-24T07:58:45.095Z,600
2018-02-24T07:59:45.107Z,668
2018-02-24T08:00:45.101Z,680
2018-02-24T08:01:45.123Z,700
2018-02-24T08:02:45.121Z,708
2018-02-24T08:03:45.416Z,684
2018-02-24T08:04:45.918Z,684
2018-02-24T08:05:45.720Z,672
2018-02-24T08:06:45.716Z,608
2018-02-24T08:07:45.724Z,612
2018-02-24T08:08:45.169Z,588
2018-02-24T08:09:45.480Z,552
2018-02-24T08:10:45.468Z,652
2018-02-24T08:11:45.196Z,644
2018-02-24T08:12:45.775Z,712
2018-02-24T08:13:45.210Z,660
2018-02-24T08:14:45.574Z,712
2018-02-24T08:15:45.791Z,800
2018-02-24T08:16:45.807Z,784
2018-02-24T08:17:45.539Z,852
2018-02-24T08:18:45.817Z,800
2018-02-24T08:19:45.844Z,844
2018-02-24T08:20:45.566Z,856
2018-02-24T08:21:45.283Z,908
2018-02-24T08:22:45.286Z,904
2018-02-24T08:23:45.583Z,892
2018-02-24T08:24:45.600Z,860
2018-02-24T08:25:45.026Z,780
2018-02-24T08:26:45.610Z,792
2018-02-24T08:27:45.621Z,860
2018-02-24T08:28:45.338Z,900
2018-02-24T08:29:45.642Z,968
2018-02-24T08:30:45.916Z,1008
2018-02-24T08:31:45.927Z,956
2018-02-24T08:32:45.370Z,956
2018-02-24T08:33:45.942Z,1012
2018-02-24T08:34:45.669Z,1024
2018-02-24T08:35:45.397Z,1092
2018-02-24T08:36:45.401Z,1088
2018-02-24T08:37:45.698Z,1036
2018-02-24T08:38:45.991Z,1120
2018-02-24T08:39:45.706Z,1096
2018-02-24T08:40:46.000Z,1096
2018-02-24T08:41:45.440Z,1132
2018-02-24T08:42:46.021Z,1000
2018-02-24T08:43:46.032Z,904
2018-02-24T08:44:46.040Z,780
2018-02-24T08:45:45.518Z,752
2018-02-24T08:46:45.485Z,780
2018-02-24T08:47:46.121Z,832
2018-02-24T08:48:45.808Z,824
2018-02-24T08:49:45.516Z,792
2018-02-24T08:50:45.804Z,792
2018-02-24T08:51:45.811Z,808
2018-02-24T08:52:45.975Z,900
2018-02-24T08:53:45.260Z,804
2018-02-24T08:54:46.126Z,704
2018-02-24T08:55:45.845Z,820
2018-02-24T08:56:45.856Z,912
2018-02-24T08:57:46.151Z,916
2018-02-24T08:58:46.169Z,888
2018-02-24T08:59:45.887Z,1024
2018-02-24T09:00:45.321Z,760
2018-02-24T09:01:45.943Z,820
2018-02-24T09:02:45.909Z,832
2018-02-24T09:03:46.196Z,816
2018-02-24T09:04:45.646Z,768
2018-02-24T09:05:45.651Z,784
2018-02-24T09:06:45.969Z,544
2018-02-24T09:07:46.293Z,508
2018-02-24T09:08:45.963Z,604
2018-02-24T09:09:46.253Z,628
2018-02-24T09:10:46.264Z,516
2018-02-24T09:11:45.997Z,508
2018-02-24T09:12:45.720Z,496
2018-02-24T09:13:46.005Z,376
2018-02-24T09:14:45.735Z,356
2018-02-24T09:15:46.026Z,356
2018-02-24T09:16:46.028Z,356
2018-02-24T09:17:46.127Z,352
2018-02-24T09:18:45.769Z,372
2018-02-24T09:19:46.067Z,380
2018-02-24T09:20:46.346Z,380
2018-02-24T09:21:45.792Z,380
2018-02-24T09:22:46.084Z,388
2018-02-24T09:23:46.103Z,404
2018-02-24T09:24:45.818Z,424
2018-02-24T09:25:46.405Z,452
2018-02-24T09:26:46.117Z,536
2018-02-24T09:27:46.164Z,504
2018-02-24T09:28:46.162Z,396
2018-02-24T09:29:46.151Z,428
2018-02-24T09:30:46.461Z,392
2018-02-24T09:31:45.890Z,396
2018-02-24T09:32:46.466Z,400
2018-02-24T09:33:46.201Z,380
2018-02-24T09:34:46.199Z,376
2018-02-24T09:35:46.203Z,368
2018-02-24T09:36:46.216Z,576
2018-02-24T09:37:46.515Z,392
2018-02-24T09:38:46.085Z,360
2018-02-24T09:39:46.523Z,404
2018-02-24T09:40:46.543Z,440
2018-02-24T09:41:45.979Z,388
2018-02-24T09:42:46.440Z,408
2018-02-24T09:43:46.285Z,392
2018-02-24T09:44:46.011Z,388
2018-02-24T09:45:46.041Z,420
2018-02-24T09:46:45.746Z,388
2018-02-24T09:47:46.326Z,404
2018-02-24T09:48:46.325Z,408
2018-02-24T09:49:46.055Z,404
2018-02-24T09:50:46.352Z,420
2018-02-24T09:51:46.687Z,468
2018-02-24T09:52:46.117Z,488
2018-02-24T09:53:45.893Z,684
2018-02-24T09:54:46.381Z,520
2018-02-24T09:55:46.111Z,512
2018-02-24T09:56:46.420Z,600
2018-02-24T09:57:46.127Z,1088
2018-02-24T09:58:46.498Z,948
2018-02-24T09:59:46.168Z,1532
2018-02-24T10:00:46.162Z,1024
2018-02-24T10:01:46.447Z,1620
2018-02-24T10:02:46.521Z,1936
2018-02-24T10:03:46.747Z,1324
2018-02-24T10:04:46.484Z,1196
2018-02-24T10:05:46.769Z,1776
2018-02-24T10:06:46.212Z,1720
2018-02-24T10:07:46.503Z,1620
2018-02-24T10:08:46.938Z,1684
2018-02-24T10:09:46.818Z,1292
2018-02-24T10:10:46.538Z,1600
2018-02-24T10:11:46.598Z,1712
2018-02-24T10:12:46.275Z,1680
2018-02-24T10:13:46.904Z,1616
2018-02-24T10:14:46.289Z,1844
2018-02-24T10:15:46.016Z,1792
2018-02-24T10:16:46.876Z,2200
2018-02-24T10:17:46.609Z,1964
2018-02-24T10:18:46.997Z,2432
2018-02-24T10:19:46.056Z,2336
2018-02-24T10:20:46.634Z,2200
2018-02-24T10:21:46.676Z,2120
2018-02-24T10:22:46.662Z,1848
2018-02-24T10:23:46.949Z,1864
2018-02-24T10:24:46.959Z,1124
2018-02-24T10:25:46.966Z,864
2018-02-24T10:26:46.693Z,796
2018-02-24T10:27:46.706Z,696
2018-02-24T10:28:46.997Z,664
2018-02-24T10:29:46.730Z,712
2018-02-24T10:30:47.014Z,668
2018-02-24T10:31:47.033Z,636
2018-02-24T10:32:46.748Z,624
2018-02-24T10:33:47.049Z,636
2018-02-24T10:34:46.778Z,664
2018-02-24T10:35:47.062Z,692
2018-02-24T10:36:46.796Z,728
2018-02-24T10:37:46.525Z,712
2018-02-24T10:38:46.815Z,768
2018-02-24T10:39:46.825Z,824
2018-02-24T10:40:47.118Z,800
2018-02-24T10:41:46.859Z,716
2018-02-24T10:42:46.855Z,752
2018-02-24T10:43:46.890Z,740
2018-02-24T10:44:46.593Z,712
2018-02-24T10:45:46.889Z,668
2018-02-24T10:46:47.187Z,676
2018-02-24T10:47:46.963Z,660
2018-02-24T10:48:47.266Z,620
2018-02-24T10:49:47.224Z,552
2018-02-24T10:50:47.220Z,660
2018-02-24T10:51:46.956Z,652
2018-02-24T10:52:46.678Z,644
2018-02-24T10:53:46.973Z,648
2018-02-24T10:54:47.267Z,652
2018-02-24T10:55:46.994Z,656
2018-02-24T10:56:47.016Z,560
2018-02-24T10:57:47.297Z,644
2018-02-24T10:58:47.022Z,656
2018-02-24T10:59:46.756Z,636
2018-02-24T11:00:46.765Z,652
2018-02-24T11:01:47.057Z,688
2018-02-24T11:02:47.068Z,688
2018-02-24T11:03:47.126Z,436
2018-02-24T11:04:47.374Z,452
2018-02-24T11:05:47.117Z,652
2018-02-24T11:06:47.105Z,652
2018-02-24T11:07:47.122Z,420
2018-02-24T11:08:47.420Z,660
2018-02-24T11:09:47.422Z,676
2018-02-24T11:10:47.448Z,700
2018-02-24T11:11:47.458Z,680
2018-02-24T11:12:47.006Z,688
2018-02-24T11:13:47.529Z,684
2018-02-24T11:14:47.199Z,704
2018-02-24T11:15:47.490Z,736
2018-02-24T11:16:46.934Z,764
2018-02-24T11:17:46.994Z,788
2018-02-24T11:18:47.239Z,804
2018-02-24T11:19:46.967Z,788
2018-02-24T11:20:47.552Z,816
2018-02-24T11:21:47.576Z,776
2018-02-24T11:22:47.567Z,756
2018-02-24T11:23:47.599Z,712
2018-02-24T11:24:47.301Z,520
2018-02-24T11:25:47.612Z,736
2018-02-24T11:26:47.603Z,740
2018-02-24T11:27:47.635Z,688
2018-02-24T11:28:47.683Z,740
2018-02-24T11:29:47.360Z,764
2018-02-24T11:30:47.670Z,784
2018-02-24T11:31:47.666Z,828
2018-02-24T11:32:47.677Z,852
2018-02-24T11:33:47.396Z,848
2018-02-24T11:34:47.692Z,804
2018-02-24T11:35:47.717Z,780
2018-02-24T11:36:47.429Z,768
2018-02-24T11:37:47.158Z,752
2018-02-24T11:38:47.503Z,748
2018-02-24T11:39:47.747Z,704
2018-02-24T11:40:47.199Z,720
2018-02-24T11:41:47.836Z,700
2018-02-24T11:42:47.508Z,712
2018-02-24T11:43:47.848Z,712
2018-02-24T11:44:47.523Z,692
2018-02-24T11:45:47.827Z,700
2018-02-24T11:46:47.542Z,700
2018-02-24T11:47:47.555Z,764
2018-02-24T11:48:47.282Z,780
2018-02-24T11:49:47.581Z,832
2018-02-24T11:50:47.588Z,912
2018-02-24T11:51:47.883Z,852
2018-02-24T11:52:47.621Z,904
2018-02-24T11:53:47.626Z,912
2018-02-24T11:54:47.633Z,1056
2018-02-24T11:55:47.845Z,932
2018-02-24T11:56:47.089Z,832
2018-02-24T11:57:47.667Z,832
2018-02-24T11:58:47.403Z,1120
2018-02-24T11:59:47.977Z,1292
2018-02-24T12:00:47.757Z,1244
2018-02-24T12:01:47.432Z,1012
2018-02-24T12:02:47.730Z,1296
2018-02-24T12:03:48.016Z,1484
2018-02-24T12:04:48.032Z,1152
2018-02-24T12:05:47.763Z,964
2018-02-24T12:06:47.774Z,948
2018-02-24T12:07:48.070Z,1128
2018-02-24T12:08:48.085Z,1044
2018-02-24T12:09:47.812Z,1160
2018-02-24T12:10:48.099Z,1324
2018-02-24T12:11:48.126Z,868
2018-02-24T12:12:47.836Z,852
2018-02-24T12:13:48.305Z,944
2018-02-24T12:14:47.870Z,1152
2018-02-24T12:15:48.162Z,1092
2018-02-24T12:16:48.168Z,992
2018-02-24T12:17:48.186Z,1376
2018-02-24T12:18:48.205Z,1352
2018-02-24T12:19:48.021Z,1044
2018-02-24T12:20:48.223Z,688
2018-02-24T12:21:47.945Z,636
2018-02-24T12:22:48.241Z,716
2018-02-24T12:23:48.260Z,792
2018-02-24T12:24:47.695Z,784
2018-02-24T12:25:48.279Z,844
2018-02-24T12:26:48.283Z,648
2018-02-24T12:27:48.294Z,568
2018-02-24T12:28:48.023Z,424
2018-02-24T12:29:48.042Z,712
2018-02-24T12:30:48.916Z,1240
2018-02-24T12:31:48.059Z,1252
2018-02-24T12:32:47.793Z,772
2018-02-24T12:33:48.371Z,592
2018-02-24T12:34:48.430Z,612
2018-02-24T12:35:48.390Z,572
2018-02-24T12:36:47.835Z,516
2018-02-24T12:37:48.424Z,496
2018-02-24T12:38:48.425Z,492
2018-02-24T12:39:47.874Z,488
2018-02-24T12:40:48.171Z,492
2018-02-24T12:41:48.179Z,536
2018-02-24T12:42:48.474Z,520
2018-02-24T12:43:48.257Z,500
2018-02-24T12:44:48.217Z,488
2018-02-24T12:45:48.226Z,468
2018-02-24T12:46:48.735Z,472
2018-02-24T12:47:48.260Z,496
2018-02-24T12:48:48.259Z,512
2018-02-24T12:49:48.639Z,540
2018-02-24T12:50:48.568Z,500
2018-02-24T12:51:48.588Z,440
2018-02-24T12:52:48.309Z,424
2018-02-24T12:53:48.326Z,424
2018-02-24T12:54:48.675Z,428
2018-02-24T12:55:48.349Z,436
2018-02-24T12:56:48.365Z,460
2018-02-24T12:57:48.090Z,444
2018-02-24T12:58:48.378Z,436
2018-02-24T12:59:48.737Z,432
2018-02-24T13:00:48.706Z,428
2018-02-24T13:01:48.133Z,424
2018-02-24T13:02:48.429Z,424
2018-02-24T13:03:48.444Z,416
2018-02-24T13:04:48.457Z,412
2018-02-24T13:05:48.189Z,404
2018-02-24T13:06:48.471Z,400
2018-02-24T13:07:48.205Z,400
2018-02-24T13:08:48.578Z,400
2018-02-24T13:09:47.998Z,396
2018-02-24T13:10:48.566Z,400
2018-02-24T13:11:48.265Z,400
2018-02-24T13:12:48.261Z,400
2018-02-24T13:13:48.566Z,408
2018-02-24T13:14:48.860Z,408
2018-02-24T13:15:48.584Z,444
2018-02-24T13:16:48.599Z,436
2018-02-24T13:17:48.891Z,416
2018-02-24T13:18:48.625Z,420
2018-02-24T13:19:48.640Z,416
2018-02-24T13:20:48.644Z,416
2018-02-24T13:21:48.372Z,420
2018-02-24T13:22:48.950Z,396
2018-02-24T13:23:48.965Z,396
2018-02-24T13:24:48.698Z,392
2018-02-24T13:25:48.986Z,396
2018-02-24T13:26:48.715Z,392
2018-02-24T13:27:48.728Z,396
2018-02-24T13:28:48.739Z,392
2018-02-24T13:29:48.476Z,396
2018-02-24T13:30:48.766Z,392
2018-02-24T13:31:48.774Z,388
2018-02-24T13:32:49.073Z,388
2018-02-24T13:33:48.801Z,388
2018-02-24T13:34:48.809Z,392
2018-02-24T13:35:48.819Z,388
2018-02-24T13:36:49.120Z,388
2018-02-24T13:37:48.848Z,388
2018-02-24T13:38:49.142Z,392
2018-02-24T13:39:48.300Z,396
2018-02-24T13:40:48.612Z,400
2018-02-24T13:41:48.892Z,400
2018-02-24T13:42:48.910Z,404
2018-02-24T13:43:48.915Z,412
2018-02-24T13:44:48.927Z,428
2018-02-24T13:45:49.223Z,472
2018-02-24T13:46:49.236Z,500
2018-02-24T13:47:48.965Z,644
2018-02-24T13:48:48.982Z,1348
2018-02-24T13:49:48.990Z,1680
2018-02-24T13:50:49.291Z,1620
2018-02-24T13:51:49.011Z,1580
2018-02-24T13:52:49.307Z,1524
2018-02-24T13:53:48.470Z,1236
2018-02-24T13:54:49.337Z,976
2018-02-24T13:55:49.106Z,1052
2018-02-24T13:56:49.071Z,1236
2018-02-24T13:57:49.086Z,1232
2018-02-24T13:58:49.104Z,844
2018-02-24T13:59:48.833Z,564
2018-02-24T14:00:49.124Z,416
2018-02-24T14:01:49.134Z,384
2018-02-24T14:02:48.576Z,396
2018-02-24T14:03:49.156Z,388
2018-02-24T14:04:49.174Z,400
2018-02-24T14:05:49.466Z,428
2018-02-24T14:06:49.189Z,444
2018-02-24T14:07:49.210Z,464
2018-02-24T14:08:49.496Z,456
2018-02-24T14:09:48.946Z,452